Pittsburg, New Hampshire
Current Conditions -  °F | °C
As of 5:00 AM on Wednesday 22 Oct 2014 (Local Time) from CYSC Reporting Station
Light Rain Light Rain  
Wind Chill: 34°   Ceiling: 7000
Heat Index: 41°   Visibility: 7mi
Dew Point: 39°   Wind: 13mph
Humidity: 93%   Direction: 50°NE
Pressure: 30.18"   Gusts: 20mph
Location:  45.05°N, 71.39°W
Report Text: CYSC 220900Z AUTO 05011G17KT 7SM -RA SCT026 OVC070 05/04 A3018 RMK SLP228
Loading
Personal Weather Stations






























Interactive Weather Map
Tropical Storm Tracking
New forecast layout! Learn more

10-Day Weather Forecast

Advertisements
Track Severe Weather on mobile